Time;durP1;ratioP1;P1;durP2;ratioP2;P2;SDS_P1;SDS_P2;PMS_P1;PMS_P2;Temp;Humidity;BMP_temperature;BMP_pressure;BME280_temperature;BME280_humidity;BME280_pressure;Samples;Min_cycle;Max_cycle;Signal;HPM_P1;HPM_P2
2023/04/29 00:01:38;;;;;;;16.25;6.03;;;;;;;1.85;100.00;99022.66;5139026;28;20047;-68
2023/04/29 00:04:05;;;;;;;14.88;5.90;;;;;;;1.85;100.00;99046.97;5139347;28;20051;-69
2023/04/29 00:06:31;;;;;;;13.75;5.10;;;;;;;1.80;100.00;99065.22;5138828;27;20228;-68
2023/04/29 00:08:57;;;;;;;19.23;6.28;;;;;;;1.74;100.00;99102.41;5139220;28;20187;-65
2023/04/29 00:11:23;;;;;;;12.15;5.63;;;;;;;1.79;100.00;99140.09;5139118;28;20055;-63
2023/04/29 00:13:49;;;;;;;13.80;5.38;;;;;;;1.77;100.00;99158.56;5138774;27;20432;-66
2023/04/29 00:16:15;;;;;;;10.02;5.97;;;;;;;1.76;100.00;99166.94;5138935;28;20464;-67
2023/04/29 00:18:40;;;;;;;9.82;5.10;;;;;;;1.74;100.00;99180.78;5138801;28;20055;-68
2023/04/29 00:21:07;;;;;;;10.80;5.50;;;;;;;1.73;100.00;99175.66;5139020;27;20070;-69
2023/04/29 00:23:33;;;;;;;11.32;5.40;;;;;;;1.72;100.00;99174.09;5138692;28;20051;-67
2023/04/29 00:25:59;;;;;;;10.88;5.35;;;;;;;1.61;100.00;99203.25;5138440;27;20062;-63
2023/04/29 00:28:25;;;;;;;13.93;5.85;;;;;;;1.55;100.00;99218.75;5138558;28;20204;-65
2023/04/29 00:30:52;;;;;;;11.88;4.90;;;;;;;1.62;100.00;99248.88;5138930;28;20543;-69
2023/04/29 00:33:18;;;;;;;13.07;6.03;;;;;;;1.56;100.00;99235.78;5138511;28;20062;-62
2023/04/29 00:35:44;;;;;;;16.52;6.10;;;;;;;1.47;100.00;99267.31;5138712;27;20047;-65
2023/04/29 00:38:10;;;;;;;12.93;5.63;;;;;;;1.58;100.00;99298.44;5138297;27;20043;-69
2023/04/29 00:40:36;;;;;;;12.25;6.32;;;;;;;1.28;100.00;99299.84;5138552;28;20388;-67
2023/04/29 00:43:02;;;;;;;10.15;5.53;;;;;;;1.33;100.00;99351.88;5138369;28;20043;-64
2023/04/29 00:45:28;;;;;;;15.02;6.43;;;;;;;1.44;100.00;99376.00;5138488;28;20062;-59
2023/04/29 00:47:54;;;;;;;10.82;6.20;;;;;;;1.28;100.00;99384.38;5138397;28;20324;-63
2023/04/29 00:50:21;;;;;;;12.43;5.53;;;;;;;1.22;100.00;99420.66;5138307;28;20139;-70
2023/04/29 00:52:47;;;;;;;16.13;5.50;;;;;;;1.37;100.00;99460.13;5138496;28;20057;-64
2023/04/29 00:55:14;;;;;;;12.20;6.38;;;;;;;1.33;100.00;99440.19;5138044;28;20368;-67
2023/04/29 00:57:41;;;;;;;10.27;5.63;;;;;;;1.30;100.00;99455.09;5138421;27;20055;-67
2023/04/29 01:00:08;;;;;;;12.75;5.50;;;;;;;1.36;100.00;99447.69;5137984;27;20054;-69
2023/04/29 01:02:35;;;;;;;13.45;5.13;;;;;;;1.37;100.00;99438.50;5138424;27;20423;-68
2023/04/29 01:05:01;;;;;;;19.35;5.55;;;;;;;1.25;100.00;99438.19;5137798;27;20138;-63
2023/04/29 01:07:36;;;;;;;11.10;4.93;;;;;;;1.24;100.00;99450.09;5138197;28;20119;-61
2023/04/29 01:10:06;;;;;;;13.75;5.22;;;;;;;1.22;100.00;99477.38;5137955;28;20274;-65
2023/04/29 01:12:40;;;;;;;8.63;5.20;;;;;;;1.26;100.00;99478.38;5137838;28;20142;-70
2023/04/29 01:15:16;;;;;;;18.00;6.05;;;;;;;1.22;100.00;99479.28;5137872;27;20059;-63
2023/04/29 01:17:58;;;;;;;12.88;5.07;;;;;;;1.20;100.00;99482.28;5137869;28;20061;-68
2023/04/29 01:20:25;;;;;;;12.23;5.63;;;;;;;1.22;100.00;99485.47;5138140;28;20051;-69
2023/04/29 01:22:51;;;;;;;15.05;5.53;;;;;;;1.20;100.00;99487.69;5137695;28;20047;-66
2023/04/29 01:25:18;;;;;;;10.65;5.18;;;;;;;1.18;100.00;99500.66;5138057;28;20055;-63
2023/04/29 01:27:55;;;;;;;13.13;5.60;;;;;;;1.18;100.00;99498.78;5137928;27;20112;-64
2023/04/29 01:30:31;;;;;;;11.15;5.32;;;;;;;1.17;100.00;99499.88;5137811;28;20152;-68
2023/04/29 01:33:02;;;;;;;13.35;5.30;;;;;;;1.15;100.00;99502.06;5138008;27;20050;-68
2023/04/29 01:35:50;;;;;;;6.80;5.15;;;;;;;1.13;100.00;99498.88;5137752;27;20142;-63
2023/04/29 01:38:25;;;;;;;15.38;5.68;;;;;;;1.06;100.00;99517.31;5139803;27;20047;-62
2023/04/29 01:40:58;;;;;;;15.07;5.28;;;;;;;1.10;100.00;99512.94;5139312;28;20101;-66
2023/04/29 01:43:29;;;;;;;12.68;5.68;;;;;;;1.08;100.00;99507.03;5137660;28;20394;-63
2023/04/29 01:45:56;;;;;;;13.88;5.88;;;;;;;1.05;100.00;99528.41;5137605;28;20047;-64
2023/04/29 01:48:23;;;;;;;10.10;5.20;;;;;;;1.06;100.00;99524.59;5137562;28;20199;-63
2023/04/29 01:50:49;;;;;;;14.25;5.75;;;;;;;0.87;100.00;99517.34;5137594;27;20134;-62
2023/04/29 01:53:15;;;;;;;15.73;5.45;;;;;;;1.02;100.00;99558.69;5137424;28;20053;-63
2023/04/29 01:55:42;;;;;;;15.15;6.15;;;;;;;1.00;100.00;99566.28;5137509;27;20051;-62
2023/04/29 01:58:09;;;;;;;9.25;5.30;;;;;;;0.92;100.00;99573.13;5137293;28;20051;-62
2023/04/29 02:00:35;;;;;;;10.23;5.25;;;;;;;0.99;100.00;99586.28;5137569;28;20055;-62
2023/04/29 02:03:01;;;;;;;12.73;4.93;;;;;;;0.98;100.00;99596.28;5137134;28;20140;-66
2023/04/29 02:05:31;;;;;;;9.63;5.30;;;;;;;0.99;100.00;99600.56;5137495;27;20066;-69
2023/04/29 02:07:57;;;;;;;15.45;5.90;;;;;;;0.94;100.00;99600.66;5137016;27;20053;-67
2023/04/29 02:10:23;;;;;;;9.93;5.43;;;;;;;0.92;100.00;99608.22;5137331;28;20051;-69
2023/04/29 02:12:48;;;;;;;9.23;5.28;;;;;;;0.93;100.00;99623.31;5136996;28;20133;-66
2023/04/29 02:15:16;;;;;;;10.13;5.65;;;;;;;0.93;100.00;99636.81;5137217;28;20108;-63
2023/04/29 02:17:42;;;;;;;15.07;5.78;;;;;;;0.76;100.00;99617.59;5137305;27;20058;-69
2023/04/29 02:20:09;;;;;;;12.18;5.80;;;;;;;0.90;100.00;99637.41;5136866;28;20087;-65
2023/04/29 02:22:35;;;;;;;17.52;6.07;;;;;;;0.87;100.00;99632.59;5137156;28;20047;-63
2023/04/29 02:25:01;;;;;;;12.20;5.85;;;;;;;0.82;100.00;99621.84;5137013;28;20203;-65
2023/04/29 02:27:26;;;;;;;8.73;5.55;;;;;;;0.80;100.00;99618.63;5137286;28;20047;-70
2023/04/29 02:29:52;;;;;;;13.55;6.07;;;;;;;0.78;100.00;99628.94;5136777;28;20204;-69
2023/04/29 02:32:19;;;;;;;11.13;6.45;;;;;;;0.80;100.00;99643.75;5137160;28;20082;-66
2023/04/29 02:34:45;;;;;;;11.85;5.65;;;;;;;0.80;100.00;99651.03;5136640;27;20138;-65
2023/04/29 02:37:11;;;;;;;10.98;5.70;;;;;;;0.79;100.00;99654.81;5137144;28;20051;-61
2023/04/29 02:39:37;;;;;;;16.20;5.55;;;;;;;0.83;100.00;99647.75;5136937;27;20051;-68
2023/04/29 02:42:03;;;;;;;20.08;7.03;;;;;;;0.87;100.00;99652.28;5136869;27;20385;-69
2023/04/29 02:44:29;;;;;;;13.32;5.60;;;;;;;0.78;100.00;99642.44;5137059;27;20409;-66
2023/04/29 02:46:55;;;;;;;14.77;6.93;;;;;;;0.83;100.00;99653.94;5136579;28;20096;-62
2023/04/29 02:49:22;;;;;;;15.98;5.70;;;;;;;0.81;100.00;99647.25;5137261;27;20095;-62
2023/04/29 02:51:48;;;;;;;9.13;5.25;;;;;;;0.81;100.00;99648.03;5140204;27;20047;-62
2023/04/29 02:54:15;;;;;;;12.05;6.13;;;;;;;0.79;100.00;99652.13;5140372;28;20321;-63
2023/04/29 02:56:41;;;;;;;14.30;6.03;;;;;;;0.68;100.00;99675.72;5140162;27;20066;-62
2023/04/29 02:59:07;;;;;;;10.85;5.88;;;;;;;0.77;100.00;99687.50;5140310;28;20046;-70
2023/04/29 03:01:34;;;;;;;13.45;6.75;;;;;;;0.74;100.00;99698.88;5140034;27;20061;-65
2023/04/29 03:04:00;;;;;;;15.90;7.00;;;;;;;0.76;100.00;99698.56;5140408;28;20043;-59
2023/04/29 03:06:26;;;;;;;11.55;6.20;;;;;;;0.86;100.00;99718.16;5139757;27;20074;-63
2023/04/29 03:08:52;;;;;;;16.30;7.00;;;;;;;0.90;100.00;99716.50;5140058;28;20054;-61
2023/04/29 03:11:18;;;;;;;14.27;6.45;;;;;;;0.91;100.00;99712.72;5140072;28;20047;-66
2023/04/29 03:13:45;;;;;;;19.85;6.72;;;;;;;1.04;100.00;99715.81;5139848;27;20321;-67
2023/04/29 03:16:12;;;;;;;15.32;6.18;;;;;;;1.37;100.00;99716.75;5139958;27;20054;-67
2023/04/29 03:18:38;;;;;;;15.73;5.93;;;;;;;2.01;100.00;99698.28;5139811;28;20043;-62
2023/04/29 03:21:04;;;;;;;18.45;7.85;;;;;;;2.58;100.00;99636.66;5140017;27;20143;-63
2023/04/29 03:23:30;;;;;;;11.52;5.55;;;;;;;3.08;100.00;99517.53;5139775;27;20043;-63
2023/04/29 03:25:56;;;;;;;21.42;6.55;;;;;;;3.55;100.00;99290.34;5139960;27;20192;-64
2023/04/29 03:28:23;;;;;;;12.23;6.18;;;;;;;3.99;100.00;99018.03;5139640;28;20075;-63
2023/04/29 03:30:48;;;;;;;15.07;5.82;;;;;;;4.34;100.00;98757.38;5139899;28;20062;-71
2023/04/29 03:33:14;;;;;;;12.73;5.78;;;;;;;4.71;100.00;98579.06;5139451;28;20051;-71
2023/04/29 03:35:40;;;;;;;14.07;5.35;;;;;;;5.15;100.00;98486.06;5139743;27;20078;-67
2023/04/29 03:38:06;;;;;;;13.10;5.35;;;;;;;5.45;100.00;98470.19;5139604;28;20083;-65
2023/04/29 03:40:33;;;;;;;12.98;5.78;;;;;;;5.53;100.00;98491.00;5139383;28;20079;-64
2023/04/29 03:42:59;;;;;;;11.30;6.10;;;;;;;5.91;100.00;98519.56;5139381;28;20051;-64
2023/04/29 03:45:25;;;;;;;11.02;5.60;;;;;;;6.25;100.00;98574.50;5139451;28;20059;-63
2023/04/29 03:47:52;;;;;;;13.50;6.47;;;;;;;6.24;100.00;98616.47;5139329;28;20184;-63
2023/04/29 03:50:18;;;;;;;16.95;6.45;;;;;;;6.66;100.00;98640.47;5139157;28;20047;-63
2023/04/29 03:52:44;;;;;;;10.45;5.45;;;;;;;6.87;100.00;98684.59;5139504;27;20047;-62
2023/04/29 03:55:11;;;;;;;17.70;6.00;;;;;;;6.90;100.00;98745.75;5139197;28;20051;-63
2023/04/29 03:57:38;;;;;;;12.50;6.25;;;;;;;7.26;100.00;98767.34;5139597;27;20047;-62
2023/04/29 04:00:05;;;;;;;14.82;6.55;;;;;;;7.61;100.00;98817.63;5139261;28;20051;-63
2023/04/29 04:02:31;;;;;;;13.65;6.00;;;;;;;7.66;100.00;98833.72;5138511;27;20153;-68
2023/04/29 04:04:57;;;;;;;13.43;6.35;;;;;;;8.17;100.00;98867.31;5138776;27;20193;-69
2023/04/29 04:07:23;;;;;;;16.67;6.65;;;;;;;8.16;100.00;98894.94;5139166;28;20047;-66
2023/04/29 04:09:49;;;;;;;15.32;7.20;;;;;;;8.38;100.00;98901.72;5138841;28;20422;-63
2023/04/29 04:12:15;;;;;;;15.88;6.60;;;;;;;8.71;100.00;98913.00;5138986;28;20055;-63
2023/04/29 04:14:42;;;;;;;24.58;6.78;;;;;;;9.25;100.00;98948.81;5139019;27;20050;-63
2023/04/29 04:17:07;;;;;;;12.95;6.72;;;;;;;9.63;100.00;98964.41;5138714;27;20135;-63
2023/04/29 04:19:33;;;;;;;15.48;6.20;;;;;;;9.53;100.00;98976.75;5138975;28;20136;-63
2023/04/29 04:21:59;;;;;;;11.80;6.18;;;;;;;9.81;100.00;98981.94;5138741;28;20075;-64
2023/04/29 04:24:25;;;;;;;21.13;6.30;;;;;;;9.86;100.00;98986.31;5138860;28;20535;-66
2023/04/29 04:26:51;;;;;;;15.50;7.03;;;;;;;10.20;100.00;99001.00;5138626;28;20087;-67
2023/04/29 04:29:17;;;;;;;13.90;6.80;;;;;;;10.62;100.00;99013.81;5138925;28;20051;-68
2023/04/29 04:31:44;;;;;;;13.13;6.43;;;;;;;10.94;100.00;99016.25;5138501;27;20127;-71
2023/04/29 04:34:09;;;;;;;17.95;6.65;;;;;;;11.26;100.00;99035.88;5138895;27;20043;-68
2023/04/29 04:36:35;;;;;;;10.30;5.70;;;;;;;11.40;100.00;99046.25;5138285;27;20377;-71
2023/04/29 04:39:01;;;;;;;13.52;6.22;;;;;;;11.52;100.00;99043.25;5138330;28;20496;-69
2023/04/29 04:41:30;;;;;;;11.27;5.60;;;;;;;12.02;100.00;99068.56;5138335;28;20141;-69
2023/04/29 04:43:56;;;;;;;12.05;5.60;;;;;;;12.10;100.00;99078.47;5138433;28;20062;-64
2023/04/29 04:46:22;;;;;;;17.40;6.75;;;;;;;12.50;100.00;99098.09;5138202;28;20051;-67
2023/04/29 04:48:48;;;;;;;15.40;6.00;;;;;;;12.80;100.00;99104.25;5138598;27;20047;-69
2023/04/29 04:51:14;;;;;;;21.65;8.02;;;;;;;12.98;100.00;99095.31;5138537;28;20043;-67
2023/04/29 04:53:40;;;;;;;23.85;11.23;;;;;;;13.38;100.00;99088.91;5138186;28;20092;-69
2023/04/29 04:56:07;;;;;;;26.27;7.57;;;;;;;13.45;100.00;99112.94;5138489;27;20142;-71
2023/04/29 04:58:33;;;;;;;23.05;7.45;;;;;;;13.49;100.00;99114.53;5137849;28;20374;-71
2023/04/29 05:00:59;;;;;;;16.40;7.47;;;;;;;14.05;100.00;99118.69;5138467;28;20342;-64
2023/04/29 05:03:25;;;;;;;19.52;7.70;;;;;;;14.54;97.17;99130.28;5138379;28;20058;-65
2023/04/29 05:05:55;;;;;;;28.55;10.55;;;;;;;14.82;96.92;99129.50;5139628;27;20119;-64
2023/04/29 05:08:21;;;;;;;27.13;7.10;;;;;;;14.81;95.30;99139.75;5138594;28;20043;-62
2023/04/29 05:10:47;;;;;;;20.30;11.38;;;;;;;14.80;93.22;99137.41;5137838;28;20051;-63
2023/04/29 05:13:13;;;;;;;14.52;8.20;;;;;;;15.50;90.74;99144.03;5137495;27;20043;-62
2023/04/29 05:15:39;;;;;;;27.00;8.27;;;;;;;15.33;90.64;99155.09;5137693;28;20051;-64
2023/04/29 05:18:05;;;;;;;22.65;10.10;;;;;;;15.63;85.38;99158.22;5137951;27;20062;-62
2023/04/29 05:20:31;;;;;;;33.97;14.05;;;;;;;15.86;73.97;99177.13;5137721;28;20047;-61
2023/04/29 05:22:58;;;;;;;29.40;12.93;;;;;;;16.31;74.32;99184.84;5137803;27;20381;-61
2023/04/29 05:25:24;;;;;;;30.05;11.82;;;;;;;16.64;68.92;99183.47;5137474;28;20054;-61
2023/04/29 05:27:50;;;;;;;33.40;12.90;;;;;;;17.02;66.31;99186.38;5137922;27;20050;-61
2023/04/29 05:30:16;;;;;;;49.53;19.88;;;;;;;16.76;67.76;99191.31;5137385;28;20055;-65
2023/04/29 05:32:44;;;;;;;35.53;12.13;;;;;;;17.23;66.17;99188.97;5137602;27;20051;-64
2023/04/29 05:35:10;;;;;;;31.08;11.23;;;;;;;17.14;66.37;99196.97;5137149;27;20138;-66
2023/04/29 05:37:36;;;;;;;26.83;10.50;;;;;;;17.45;63.16;99191.53;5137499;28;20071;-66
2023/04/29 05:40:03;;;;;;;32.47;10.10;;;;;;;17.87;61.79;99196.69;5137607;27;20082;-66
2023/04/29 05:42:29;;;;;;;27.30;10.35;;;;;;;17.86;60.58;99186.81;5137450;28;20416;-61
2023/04/29 05:44:55;;;;;;;19.10;9.20;;;;;;;18.37;60.44;99197.28;5137363;28;20408;-67
2023/04/29 05:47:21;;;;;;;24.20;9.07;;;;;;;18.26;57.00;99201.00;5137236;28;20089;-67
2023/04/29 05:49:47;;;;;;;21.08;9.90;;;;;;;18.31;56.57;99202.50;5137200;27;20051;-65
2023/04/29 05:52:13;;;;;;;34.42;9.52;;;;;;;18.17;55.39;99200.69;5137183;27;20069;-63
2023/04/29 05:54:40;;;;;;;25.85;8.88;;;;;;;18.76;54.58;99203.09;5137441;28;20407;-62
2023/04/29 05:57:07;;;;;;;22.20;8.68;;;;;;;18.83;56.39;99201.41;5137072;28;20058;-61
2023/04/29 05:59:33;;;;;;;26.25;6.75;;;;;;;19.31;56.91;99201.03;5137743;28;20051;-65
2023/04/29 06:02:00;;;;;;;14.63;5.10;;;;;;;19.24;54.60;99204.72;5136952;28;20134;-62
2023/04/29 06:04:26;;;;;;;13.23;4.82;;;;;;;18.84;52.65;99203.00;5136849;28;20057;-61
2023/04/29 06:06:53;;;;;;;13.70;3.83;;;;;;;19.04;51.88;99201.09;5136939;27;20051;-66
2023/04/29 06:09:19;;;;;;;16.23;4.20;;;;;;;19.30;50.49;99204.25;5136822;28;20138;-60
2023/04/29 06:11:45;;;;;;;18.27;5.55;;;;;;;18.81;51.10;99199.84;5137049;28;20387;-63
2023/04/29 06:14:12;;;;;;;17.35;4.65;;;;;;;19.41;50.60;99196.50;5136731;28;20044;-61
2023/04/29 06:16:38;;;;;;;6.45;2.30;;;;;;;18.79;48.53;99199.50;5136904;28;20062;-58
2023/04/29 06:19:04;;;;;;;5.53;3.10;;;;;;;19.39;48.25;99202.50;5136716;28;20054;-66
2023/04/29 06:21:30;;;;;;;7.25;2.17;;;;;;;19.70;48.14;99205.94;5137035;28;20062;-63
2023/04/29 06:23:56;;;;;;;5.18;2.10;;;;;;;19.93;47.77;99201.53;5136741;27;20051;-59
2023/04/29 06:26:22;;;;;;;2.95;1.52;;;;;;;19.84;48.61;99206.88;5140530;27;20058;-59
2023/04/29 06:28:48;;;;;;;2.72;1.35;;;;;;;19.46;46.68;99201.56;5140219;28;20051;-65
2023/04/29 06:31:15;;;;;;;8.07;2.42;;;;;;;19.00;47.72;99208.69;5140639;28;20135;-69
2023/04/29 06:33:41;;;;;;;3.35;1.50;;;;;;;20.22;46.73;99210.88;5139882;28;20054;-67
2023/04/29 06:36:07;;;;;;;2.70;1.60;;;;;;;20.09;46.95;99203.59;5140077;27;20134;-60
2023/04/29 06:38:33;;;;;;;5.28;2.50;;;;;;;20.07;46.41;99206.81;5140551;27;20061;-63
2023/04/29 06:41:00;;;;;;;3.05;2.30;;;;;;;19.24;47.29;99201.94;5140239;28;20047;-64
2023/04/29 06:43:26;;;;;;;10.02;3.25;;;;;;;19.55;47.55;99204.59;5140420;27;20051;-65
2023/04/29 06:45:51;;;;;;;6.05;2.47;;;;;;;20.40;45.68;99216.09;5140112;28;20184;-65
2023/04/29 06:48:18;;;;;;;9.32;2.70;;;;;;;20.22;46.01;99207.31;5140393;27;20141;-68
2023/04/29 06:50:50;;;;;;;6.45;3.13;;;;;;;20.61;46.07;99205.72;5139964;28;20051;-65
2023/04/29 06:53:16;;;;;;;5.53;2.33;;;;;;;20.31;47.90;99203.94;5140193;27;20072;-69
2023/04/29 06:55:43;;;;;;;4.10;2.30;;;;;;;21.10;44.60;99209.34;5139668;28;20081;-65
2023/04/29 06:58:09;;;;;;;3.75;1.80;;;;;;;20.49;45.21;99212.69;5139550;27;20050;-63
2023/04/29 07:00:35;;;;;;;7.15;1.83;;;;;;;19.51;45.41;99213.00;5139590;28;20062;-60
2023/04/29 07:03:01;;;;;;;2.63;2.10;;;;;;;20.64;44.17;99208.41;5139883;28;20047;-63
2023/04/29 07:05:28;;;;;;;5.25;1.83;;;;;;;20.66;45.25;99205.22;5139930;27;20055;-66
2023/04/29 07:07:54;;;;;;;5.65;1.98;;;;;;;20.99;43.81;99210.81;5139559;28;20134;-65
2023/04/29 07:10:19;;;;;;;3.65;1.77;;;;;;;20.57;44.75;99203.00;5139516;27;20095;-65
2023/04/29 07:12:45;;;;;;;4.45;2.03;;;;;;;21.34;45.53;99201.63;5139557;28;20086;-68
2023/04/29 07:15:11;;;;;;;6.03;1.77;;;;;;;21.59;44.32;99203.78;5139497;28;20107;-67
2023/04/29 07:17:37;;;;;;;4.55;1.80;;;;;;;21.51;45.22;99210.75;5139411;28;20061;-65
2023/04/29 07:20:04;;;;;;;3.42;1.50;;;;;;;22.08;42.39;99200.81;5139724;28;20043;-62
2023/04/29 07:22:31;;;;;;;2.83;1.42;;;;;;;22.11;42.64;99201.16;5139397;28;20054;-62
2023/04/29 07:24:56;;;;;;;5.45;1.70;;;;;;;22.02;43.30;99202.59;5139622;27;20051;-62
2023/04/29 07:27:23;;;;;;;6.82;3.70;;;;;;;22.01;42.72;99203.81;5139137;27;20047;-62
2023/04/29 07:29:49;;;;;;;5.03;3.47;;;;;;;19.80;44.33;99212.53;5139383;28;20054;-67
2023/04/29 07:32:15;;;;;;;2.55;2.05;;;;;;;16.70;46.02;99217.81;5139350;28;20051;-65
2023/04/29 07:34:41;;;;;;;8.57;2.72;;;;;;;17.47;47.31;99203.03;5139370;28;20111;-60
2023/04/29 07:37:07;;;;;;;5.55;2.53;;;;;;;19.25;45.50;99213.84;5139060;27;20362;-62
2023/04/29 07:39:34;;;;;;;3.88;1.98;;;;;;;18.99;43.93;99210.69;5139416;28;20344;-64
2023/04/29 07:42:01;;;;;;;2.97;1.45;;;;;;;18.30;45.36;99209.25;5139502;28;20080;-65
2023/04/29 07:44:28;;;;;;;5.72;1.30;;;;;;;18.49;45.59;99205.84;5139059;28;20408;-63
2023/04/29 07:46:53;;;;;;;3.03;1.58;;;;;;;18.04;46.22;99208.00;5139455;27;20138;-65
2023/04/29 07:49:19;;;;;;;6.40;1.90;;;;;;;18.08;46.31;99203.97;5139159;27;20051;-63
2023/04/29 07:51:45;;;;;;;2.40;1.50;;;;;;;19.52;45.38;99205.44;5139377;28;20424;-62
2023/04/29 07:54:11;;;;;;;4.82;1.80;;;;;;;19.47;45.77;99203.94;5138992;28;20548;-57
2023/04/29 07:56:38;;;;;;;3.97;2.40;;;;;;;18.28;45.94;99211.66;5139311;28;20051;-59
2023/04/29 07:59:04;;;;;;;7.78;2.47;;;;;;;17.67;46.52;99212.31;5139071;28;20061;-60
2023/04/29 08:01:30;;;;;;;4.22;1.73;;;;;;;16.06;47.97;99218.94;5139403;28;20051;-61
2023/04/29 08:03:56;;;;;;;2.95;1.60;;;;;;;16.68;48.93;99211.91;5140823;27;20047;-66
2023/04/29 08:06:22;;;;;;;4.75;2.08;;;;;;;16.03;49.02;99210.63;5139473;27;20199;-64
2023/04/29 08:08:48;;;;;;;6.00;1.70;;;;;;;16.46;47.27;99209.25;5139066;28;20062;-66
2023/04/29 08:11:18;;;;;;;3.30;1.90;;;;;;;16.41;48.23;99200.59;5138874;27;20158;-63
2023/04/29 08:13:44;;;;;;;4.45;1.90;;;;;;;16.37;48.52;99205.34;5138621;27;20057;-58
2023/04/29 08:16:10;;;;;;;4.72;1.60;;;;;;;15.56;49.20;99201.63;5138553;28;20063;-60
2023/04/29 08:18:36;;;;;;;4.35;1.52;;;;;;;15.48;49.83;99200.84;5139064;28;20079;-64
2023/04/29 08:21:03;;;;;;;3.83;1.88;;;;;;;15.82;49.14;99201.22;5138468;28;20051;-65
2023/04/29 08:23:29;;;;;;;4.60;1.65;;;;;;;16.05;49.09;99199.97;5138922;28;20138;-58
2023/04/29 08:25:55;;;;;;;2.53;1.50;;;;;;;16.46;48.50;99200.97;5138347;27;20437;-62
2023/04/29 08:28:20;;;;;;;5.68;2.85;;;;;;;17.28;49.37;99199.59;5138772;27;20312;-66
2023/04/29 08:30:47;;;;;;;3.70;1.55;;;;;;;17.53;49.02;99196.63;5138367;28;20137;-66
2023/04/29 08:33:13;;;;;;;5.72;1.83;;;;;;;17.66;48.27;99199.66;5138120;28;20051;-60
2023/04/29 08:35:40;;;;;;;4.65;1.80;;;;;;;17.16;48.62;99200.91;5138408;27;20167;-60
2023/04/29 08:38:07;;;;;;;2.28;1.58;;;;;;;16.99;48.32;99196.28;5138408;28;20051;-61
2023/04/29 08:40:40;;;;;;;9.02;1.63;;;;;;;17.51;48.05;99189.91;5138554;27;20120;-59
2023/04/29 08:43:08;;;;;;;1.95;1.65;;;;;;;17.87;46.64;99182.81;5138170;28;20062;-65
2023/04/29 08:45:35;;;;;;;2.35;1.67;;;;;;;18.20;45.57;99186.00;5138479;28;20325;-63
2023/04/29 08:48:02;;;;;;;1.52;1.42;;;;;;;19.19;45.52;99188.56;5137652;27;20051;-61
2023/04/29 08:50:29;;;;;;;9.00;2.72;;;;;;;19.56;45.56;99181.16;5138848;28;20426;-66
2023/04/29 08:52:55;;;;;;;2.80;1.88;;;;;;;17.83;47.05;99170.19;5138111;28;20047;-66
2023/04/29 08:55:21;;;;;;;4.85;1.92;;;;;;;18.38;47.28;99179.41;5138328;27;20054;-61
2023/04/29 08:57:49;;;;;;;6.25;1.92;;;;;;;18.92;47.67;99183.00;5137917;28;20452;-64
2023/04/29 09:00:17;;;;;;;4.53;2.20;;;;;;;18.65;46.55;99182.22;5138207;28;20084;-64
2023/04/29 09:02:46;;;;;;;5.18;1.80;;;;;;;19.10;45.50;99179.97;5138130;28;20046;-61
2023/04/29 09:05:13;;;;;;;4.07;1.90;;;;;;;18.89;46.72;99178.28;5138118;27;20445;-59
2023/04/29 09:07:40;;;;;;;2.60;1.70;;;;;;;18.14;46.90;99168.22;5138278;28;20192;-59
2023/04/29 09:10:07;;;;;;;6.70;1.67;;;;;;;18.10;46.26;99170.28;5138053;28;20065;-65
2023/04/29 09:12:34;;;;;;;4.45;1.75;;;;;;;18.60;46.43;99166.81;5138143;28;20047;-63
2023/04/29 09:15:01;;;;;;;2.42;1.95;;;;;;;19.80;46.15;99170.00;5137638;27;20353;-65
2023/04/29 09:17:41;;;;;;;5.72;1.75;;;;;;;19.95;45.57;99169.28;5138016;27;20315;-64
2023/04/29 09:20:30;;;;;;;3.70;2.47;;;;;;;19.60;45.26;99173.53;5137527;27;20058;-64
2023/04/29 09:22:58;;;;;;;5.38;1.40;;;;;;;19.63;44.31;99169.13;5131049;28;20097;-64
2023/04/29 09:25:26;;;;;;;4.13;2.00;;;;;;;19.55;45.71;99181.56;5137708;28;20428;-63
2023/04/29 09:27:52;;;;;;;3.05;2.47;;;;;;;19.77;45.03;99179.22;5137672;28;20333;-65
2023/04/29 09:30:18;;;;;;;4.90;2.13;;;;;;;19.64;44.54;99179.81;5137847;28;20150;-58
2023/04/29 09:32:44;;;;;;;2.83;1.60;;;;;;;19.14;44.33;99169.56;5137565;28;20081;-66
2023/04/29 09:35:24;;;;;;;3.58;1.85;;;;;;;19.05;43.65;99167.31;5137703;27;20055;-60
2023/04/29 09:37:53;;;;;;;6.30;2.45;;;;;;;18.46;44.75;99169.78;5137334;27;20090;-62
2023/04/29 09:40:29;;;;;;;3.08;1.90;;;;;;;19.27;43.80;99172.53;5137688;27;20054;-60
2023/04/29 09:42:55;;;;;;;4.40;2.58;;;;;;;19.84;44.13;99163.16;5137456;27;20376;-67
2023/04/29 09:45:35;;;;;;;7.47;2.20;;;;;;;20.23;43.26;99172.72;5137428;27;20123;-63
2023/04/29 09:48:02;;;;;;;6.97;2.78;;;;;;;20.25;44.42;99172.25;5137593;27;20046;-58
2023/04/29 09:50:28;;;;;;;2.13;1.90;;;;;;;19.80;45.19;99173.56;5137230;28;20336;-69
2023/04/29 09:52:55;;;;;;;4.53;1.85;;;;;;;19.95;44.64;99172.06;5137474;27;20134;-70
2023/04/29 09:55:20;;;;;;;5.35;2.17;;;;;;;19.36;44.58;99177.53;5137117;27;20047;-72
2023/04/29 09:57:46;;;;;;;8.20;3.50;;;;;;;19.72;44.88;99167.34;5137695;28;20107;-67
2023/04/29 10:00:13;;;;;;;6.72;2.80;;;;;;;19.96;43.81;99165.31;5135897;27;20047;-64
2023/04/29 10:02:41;;;;;;;5.32;2.58;;;;;;;20.29;44.75;99154.25;5137479;27;20051;-67
2023/04/29 10:05:09;;;;;;;4.18;2.38;;;;;;;20.38;43.91;99162.81;5136770;27;20482;-65
2023/04/29 10:07:38;;;;;;;3.80;2.88;;;;;;;20.23;43.77;99147.66;5136802;28;20051;-66
2023/04/29 10:10:07;;;;;;;6.03;2.15;;;;;;;19.58;45.08;99153.69;5137117;27;20083;-62
2023/04/29 10:12:34;;;;;;;3.03;1.98;;;;;;;20.60;43.25;99149.25;5136957;28;20481;-68
2023/04/29 10:15:02;;;;;;;3.33;2.20;;;;;;;19.85;44.33;99156.38;5137217;27;20218;-67
2023/04/29 10:17:35;;;;;;;7.07;2.95;;;;;;;20.14;43.62;99155.78;5136861;28;20044;-70
2023/04/29 10:20:04;;;;;;;8.85;2.28;;;;;;;19.79;43.21;99149.72;5137208;27;20084;-65
2023/04/29 10:22:44;;;;;;;8.98;2.42;;;;;;;19.54;45.22;99150.19;5136963;27;20051;-62
2023/04/29 10:25:13;;;;;;;2.95;1.90;;;;;;;19.87;44.01;99144.84;5137138;27;20093;-66
2023/04/29 10:27:41;;;;;;;7.05;2.40;;;;;;;20.60;42.98;99145.66;5137130;27;20055;-69
2023/04/29 10:30:11;;;;;;;2.50;1.75;;;;;;;18.25;44.64;99134.78;5137936;28;20055;-61
2023/04/29 10:32:40;;;;;;;6.50;2.10;;;;;;;19.95;43.80;99143.47;5137247;27;20051;-67
2023/04/29 10:35:08;;;;;;;4.25;3.00;;;;;;;20.16;43.77;99145.81;5136789;27;20374;-66
2023/04/29 10:37:35;;;;;;;3.97;2.47;;;;;;;19.89;43.53;99142.38;5137072;28;20058;-71
2023/04/29 10:40:12;;;;;;;4.05;2.85;;;;;;;19.33;43.83;99136.69;5136870;28;20054;-69
2023/04/29 10:42:45;;;;;;;4.68;2.20;;;;;;;19.80;44.12;99136.63;5138809;28;20055;-65
2023/04/29 10:45:21;;;;;;;8.37;2.40;;;;;;;19.51;44.22;99135.16;5137783;27;20112;-69
2023/04/29 10:48:15;;;;;;;7.25;2.28;;;;;;;19.00;45.44;99136.47;5137123;28;20138;-62
2023/04/29 10:50:59;;;;;;;3.80;2.30;;;;;;;19.41;43.90;99135.34;5136547;27;20332;-70
2023/04/29 10:53:26;;;;;;;;;;;;;;;19.70;45.13;99133.63;5136734;28;20062;-64
2023/04/29 10:55:55;;;;;;;5.15;2.40;;;;;;;19.45;44.75;99134.06;5136507;27;19923;-68
2023/04/29 10:58:44;;;;;;;4.20;1.92;;;;;;;19.74;44.36;99131.56;5136363;28;20051;-69
2023/04/29 11:01:12;;;;;;;4.47;2.13;;;;;;;18.53;45.93;99128.84;5136664;28;20057;-69
2023/04/29 11:03:57;;;;;;;5.80;2.00;;;;;;;16.11;47.59;99127.22;5136159;28;20061;-68
2023/04/29 11:06:25;;;;;;;4.78;2.22;;;;;;;17.16;47.68;99128.88;5136383;27;20328;-69
2023/04/29 11:09:02;;;;;;;6.78;2.20;;;;;;;16.67;48.21;99132.81;5136467;28;20354;-61
2023/04/29 11:11:57;;;;;;;3.95;2.00;;;;;;;16.99;46.38;99124.28;5138304;27;20047;-66
2023/04/29 11:14:26;;;;;;;3.97;2.00;;;;;;;17.04;46.46;99123.06;5139769;28;20043;-68
2023/04/29 11:16:53;;;;;;;25.30;2.40;;;;;;;16.79;48.39;99114.97;5139578;28;20317;-67
2023/04/29 11:19:20;;;;;;;4.10;1.73;;;;;;;15.74;48.12;99112.00;5140077;28;20054;-67
2023/04/29 11:21:46;;;;;;;6.80;2.45;;;;;;;15.19;47.95;99108.97;5139745;28;20340;-63
2023/04/29 11:24:14;;;;;;;2.95;2.00;;;;;;;15.07;47.92;99113.72;5139889;28;20191;-68
2023/04/29 11:26:41;;;;;;;3.75;1.83;;;;;;;15.29;48.52;99110.91;5139556;27;20095;-68
2023/04/29 11:29:09;;;;;;;2.83;1.60;;;;;;;14.74;49.32;99120.44;5139657;27;20054;-70
2023/04/29 11:31:36;;;;;;;6.05;2.15;;;;;;;14.83;47.44;99123.59;5139839;27;20082;-67